sensor_id;sensor_type;location;lat;lon;timestamp;pressure;altitude;pressure_sealevel;temperature;humidity
54038;BME280;39954;48.844;9.726;2023-05-02T00:00:12;96143.63;;;7.17;100.00
54038;BME280;39954;48.844;9.726;2023-05-02T00:01:14;96144.59;;;7.15;100.00
54038;BME280;39954;48.844;9.726;2023-05-02T00:02:19;96150.63;;;7.14;100.00
54038;BME280;39954;48.844;9.726;2023-05-02T00:03:22;96145.47;;;7.14;100.00
54038;BME280;39954;48.844;9.726;2023-05-02T00:04:38;96150.00;;;7.09;100.00
54038;BME280;39954;48.844;9.726;2023-05-02T00:05:41;96153.56;;;7.06;100.00
54038;BME280;39954;48.844;9.726;2023-05-02T00:06:48;96158.91;;;7.02;100.00
54038;BME280;39954;48.844;9.726;2023-05-02T00:07:56;96157.38;;;6.98;100.00
54038;BME280;39954;48.844;9.726;2023-05-02T00:09:05;96149.09;;;6.89;100.00
54038;BME280;39954;48.844;9.726;2023-05-02T00:10:08;96151.91;;;6.83;100.00
54038;BME280;39954;48.844;9.726;2023-05-02T00:11:13;96148.69;;;6.78;100.00
54038;BME280;39954;48.844;9.726;2023-05-02T00:12:16;96147.22;;;6.72;100.00
54038;BME280;39954;48.844;9.726;2023-05-02T00:13:22;96145.59;;;6.70;100.00
54038;BME280;39954;48.844;9.726;2023-05-02T00:14:28;96147.38;;;6.68;100.00
54038;BME280;39954;48.844;9.726;2023-05-02T00:15:33;96143.97;;;6.67;100.00
54038;BME280;39954;48.844;9.726;2023-05-02T00:16:36;96141.44;;;6.66;100.00
54038;BME280;39954;48.844;9.726;2023-05-02T00:17:45;96139.69;;;6.66;100.00
54038;BME280;39954;48.844;9.726;2023-05-02T00:18:49;96138.72;;;6.69;100.00
54038;BME280;39954;48.844;9.726;2023-05-02T00:19:54;96142.75;;;6.76;100.00
54038;BME280;39954;48.844;9.726;2023-05-02T00:20:58;96144.41;;;6.77;100.00
54038;BME280;39954;48.844;9.726;2023-05-02T00:22:03;96140.16;;;6.76;100.00
54038;BME280;39954;48.844;9.726;2023-05-02T00:23:08;96140.94;;;6.78;100.00
54038;BME280;39954;48.844;9.726;2023-05-02T00:24:17;96146.56;;;6.88;100.00
54038;BME280;39954;48.844;9.726;2023-05-02T00:25:20;96147.28;;;6.91;100.00
54038;BME280;39954;48.844;9.726;2023-05-02T00:26:25;96147.13;;;6.94;100.00
54038;BME280;39954;48.844;9.726;2023-05-02T00:27:29;96142.09;;;6.91;100.00
54038;BME280;39954;48.844;9.726;2023-05-02T00:28:34;96137.47;;;7.00;100.00
54038;BME280;39954;48.844;9.726;2023-05-02T00:29:36;96145.06;;;7.03;100.00
54038;BME280;39954;48.844;9.726;2023-05-02T00:30:42;96138.81;;;7.08;100.00
54038;BME280;39954;48.844;9.726;2023-05-02T00:31:45;96143.22;;;7.06;100.00
54038;BME280;39954;48.844;9.726;2023-05-02T00:32:51;96149.16;;;7.08;100.00
54038;BME280;39954;48.844;9.726;2023-05-02T00:33:55;96145.81;;;7.06;100.00
54038;BME280;39954;48.844;9.726;2023-05-02T00:35:00;96149.38;;;7.04;100.00
54038;BME280;39954;48.844;9.726;2023-05-02T00:36:02;96140.66;;;7.06;100.00
54038;BME280;39954;48.844;9.726;2023-05-02T00:37:08;96147.56;;;7.06;100.00
54038;BME280;39954;48.844;9.726;2023-05-02T00:38:10;96143.28;;;7.05;100.00
54038;BME280;39954;48.844;9.726;2023-05-02T00:39:20;96145.81;;;7.06;100.00
54038;BME280;39954;48.844;9.726;2023-05-02T00:40:23;96146.47;;;7.11;100.00
54038;BME280;39954;48.844;9.726;2023-05-02T00:41:28;96144.84;;;7.09;100.00
54038;BME280;39954;48.844;9.726;2023-05-02T00:42:32;96143.97;;;7.08;100.00
54038;BME280;39954;48.844;9.726;2023-05-02T00:43:37;96145.47;;;7.14;100.00
54038;BME280;39954;48.844;9.726;2023-05-02T00:44:40;96151.56;;;7.13;100.00
54038;BME280;39954;48.844;9.726;2023-05-02T00:45:45;96146.38;;;7.13;100.00
54038;BME280;39954;48.844;9.726;2023-05-02T00:46:49;96150.53;;;7.17;100.00
54038;BME280;39954;48.844;9.726;2023-05-02T00:47:54;96140.94;;;7.19;100.00
54038;BME280;39954;48.844;9.726;2023-05-02T00:48:56;96138.38;;;7.19;100.00
54038;BME280;39954;48.844;9.726;2023-05-02T00:50:01;96140.19;;;7.17;100.00
54038;BME280;39954;48.844;9.726;2023-05-02T00:51:06;96141.16;;;7.14;100.00
54038;BME280;39954;48.844;9.726;2023-05-02T00:52:14;96142.13;;;7.12;100.00
54038;BME280;39954;48.844;9.726;2023-05-02T00:53:16;96144.72;;;7.12;100.00
54038;BME280;39954;48.844;9.726;2023-05-02T00:54:24;96146.38;;;7.13;100.00
54038;BME280;39954;48.844;9.726;2023-05-02T00:55:26;96147.44;;;7.09;100.00
54038;BME280;39954;48.844;9.726;2023-05-02T00:56:31;96149.16;;;7.08;100.00
54038;BME280;39954;48.844;9.726;2023-05-02T00:57:33;96149.41;;;7.02;100.00
54038;BME280;39954;48.844;9.726;2023-05-02T00:58:39;96142.63;;;7.00;100.00
54038;BME280;39954;48.844;9.726;2023-05-02T00:59:41;96144.97;;;7.06;100.00
54038;BME280;39954;48.844;9.726;2023-05-02T01:00:58;96151.50;;;7.14;100.00
54038;BME280;39954;48.844;9.726;2023-05-02T01:02:13;96148.19;;;7.11;100.00
54038;BME280;39954;48.844;9.726;2023-05-02T01:03:31;96154.53;;;7.04;100.00
54038;BME280;39954;48.844;9.726;2023-05-02T01:04:45;96146.50;;;7.10;100.00
54038;BME280;39954;48.844;9.726;2023-05-02T01:06:00;96152.59;;;7.09;100.00
54038;BME280;39954;48.844;9.726;2023-05-02T01:07:16;96148.31;;;7.08;100.00
54038;BME280;39954;48.844;9.726;2023-05-02T01:08:32;96149.09;;;7.10;100.00
54038;BME280;39954;48.844;9.726;2023-05-02T01:09:47;96151.81;;;7.07;100.00
54038;BME280;39954;48.844;9.726;2023-05-02T01:11:02;96158.91;;;7.02;100.00
54038;BME280;39954;48.844;9.726;2023-05-02T01:12:15;96152.31;;;6.94;100.00
54038;BME280;39954;48.844;9.726;2023-05-02T01:13:25;96161.09;;;6.90;100.00
54038;BME280;39954;48.844;9.726;2023-05-02T01:14:30;96156.97;;;6.86;100.00
54038;BME280;39954;48.844;9.726;2023-05-02T01:15:38;96158.81;;;6.83;100.00
54038;BME280;39954;48.844;9.726;2023-05-02T01:16:44;96153.91;;;6.77;100.00
54038;BME280;39954;48.844;9.726;2023-05-02T01:17:51;96163.66;;;6.70;100.00
54038;BME280;39954;48.844;9.726;2023-05-02T01:18:57;96166.28;;;6.68;100.00
54038;BME280;39954;48.844;9.726;2023-05-02T01:20:07;96164.31;;;6.75;100.00
54038;BME280;39954;48.844;9.726;2023-05-02T01:21:11;96166.91;;;6.75;100.00
54038;BME280;39954;48.844;9.726;2023-05-02T01:22:17;96166.91;;;6.75;100.00
54038;BME280;39954;48.844;9.726;2023-05-02T01:23:26;96162.56;;;6.76;100.00
54038;BME280;39954;48.844;9.726;2023-05-02T01:24:40;96166.91;;;6.75;100.00
54038;BME280;39954;48.844;9.726;2023-05-02T01:25:55;96166.00;;;6.76;100.00
54038;BME280;39954;48.844;9.726;2023-05-02T01:27:13;96165.06;;;6.77;100.00
54038;BME280;39954;48.844;9.726;2023-05-02T01:28:23;96172.16;;;6.72;100.00
54038;BME280;39954;48.844;9.726;2023-05-02T01:29:36;96168.00;;;6.69;100.00
54038;BME280;39954;48.844;9.726;2023-05-02T01:30:41;96179.41;;;6.64;100.00
54038;BME280;39954;48.844;9.726;2023-05-02T01:31:48;96170.03;;;6.61;100.00
54038;BME280;39954;48.844;9.726;2023-05-02T01:32:53;96168.53;;;6.56;100.00
54038;BME280;39954;48.844;9.726;2023-05-02T01:34:00;96166.09;;;6.53;100.00
54038;BME280;39954;48.844;9.726;2023-05-02T01:35:04;96173.81;;;6.53;100.00
54038;BME280;39954;48.844;9.726;2023-05-02T01:36:11;96171.34;;;6.49;100.00
54038;BME280;39954;48.844;9.726;2023-05-02T01:37:17;96175.41;;;6.55;100.00
54038;BME280;39954;48.844;9.726;2023-05-02T01:38:26;96164.25;;;6.55;100.00
54038;BME280;39954;48.844;9.726;2023-05-02T01:39:29;96165.16;;;6.54;100.00
54038;BME280;39954;48.844;9.726;2023-05-02T01:40:36;96166.78;;;6.56;100.00
54038;BME280;39954;48.844;9.726;2023-05-02T01:41:39;96167.63;;;6.57;100.00
54038;BME280;39954;48.844;9.726;2023-05-02T01:42:46;96170.16;;;6.58;100.00
54038;BME280;39954;48.844;9.726;2023-05-02T01:43:50;96168.47;;;6.57;100.00
54038;BME280;39954;48.844;9.726;2023-05-02T01:44:58;96172.66;;;6.60;100.00
54038;BME280;39954;48.844;9.726;2023-05-02T01:46:06;96171.16;;;6.54;100.00
54038;BME280;39954;48.844;9.726;2023-05-02T01:47:14;96172.91;;;6.54;100.00
54038;BME280;39954;48.844;9.726;2023-05-02T01:48:18;96171.13;;;6.56;100.00
54038;BME280;39954;48.844;9.726;2023-05-02T01:49:25;96173.63;;;6.57;100.00
54038;BME280;39954;48.844;9.726;2023-05-02T01:50:28;96177.00;;;6.59;100.00
54038;BME280;39954;48.844;9.726;2023-05-02T01:51:34;96181.50;;;6.54;100.00
54038;BME280;39954;48.844;9.726;2023-05-02T01:52:38;96182.34;;;6.55;100.00
54038;BME280;39954;48.844;9.726;2023-05-02T01:53:45;96175.41;;;6.55;100.00
54038;BME280;39954;48.844;9.726;2023-05-02T01:54:50;96177.13;;;6.56;100.00
54038;BME280;39954;48.844;9.726;2023-05-02T01:55:58;96180.66;;;6.54;100.00
54038;BME280;39954;48.844;9.726;2023-05-02T01:57:01;96178.88;;;6.56;100.00
54038;BME280;39954;48.844;9.726;2023-05-02T01:58:09;96180.41;;;6.60;100.00
54038;BME280;39954;48.844;9.726;2023-05-02T01:59:14;96177.91;;;6.58;100.00
54038;BME280;39954;48.844;9.726;2023-05-02T02:00:24;96180.53;;;6.57;100.00
54038;BME280;39954;48.844;9.726;2023-05-02T02:01:28;96183.25;;;6.54;100.00
54038;BME280;39954;48.844;9.726;2023-05-02T02:02:34;96184.25;;;6.49;100.00
54038;BME280;39954;48.844;9.726;2023-05-02T02:03:37;96178.22;;;6.50;100.00
54038;BME280;39954;48.844;9.726;2023-05-02T02:04:43;96183.38;;;6.50;100.00
54038;BME280;39954;48.844;9.726;2023-05-02T02:05:48;96185.94;;;6.50;100.00
54038;BME280;39954;48.844;9.726;2023-05-02T02:06:59;96185.03;;;6.52;100.00
54038;BME280;39954;48.844;9.726;2023-05-02T02:08:05;96186.75;;;6.53;100.00
54038;BME280;39954;48.844;9.726;2023-05-02T02:09:09;96188.53;;;6.50;100.00
54038;BME280;39954;48.844;9.726;2023-05-02T02:10:14;96182.59;;;6.48;100.00
54038;BME280;39954;48.844;9.726;2023-05-02T02:11:23;96190.31;;;6.48;100.00
54038;BME280;39954;48.844;9.726;2023-05-02T02:12:39;96191.16;;;6.49;100.00
54038;BME280;39954;48.844;9.726;2023-05-02T02:13:48;96186.78;;;6.51;100.00
54038;BME280;39954;48.844;9.726;2023-05-02T02:15:02;96189.31;;;6.53;100.00
54038;BME280;39954;48.844;9.726;2023-05-02T02:16:11;96195.38;;;6.52;100.00
54038;BME280;39954;48.844;9.726;2023-05-02T02:17:24;96196.28;;;6.50;100.00
54038;BME280;39954;48.844;9.726;2023-05-02T02:18:28;96190.31;;;6.48;100.00
54038;BME280;39954;48.844;9.726;2023-05-02T02:19:37;96198.97;;;6.47;100.00
54038;BME280;39954;48.844;9.726;2023-05-02T02:20:43;96188.53;;;6.50;100.00
54038;BME280;39954;48.844;9.726;2023-05-02T02:21:53;96186.75;;;6.53;100.00
54038;BME280;39954;48.844;9.726;2023-05-02T02:22:59;96192.75;;;6.53;100.00
54038;BME280;39954;48.844;9.726;2023-05-02T02:24:07;96192.75;;;6.53;100.00
54038;BME280;39954;48.844;9.726;2023-05-02T02:25:12;96197.94;;;6.52;100.00
54038;BME280;39954;48.844;9.726;2023-05-02T02:26:19;96198.72;;;6.54;100.00
54038;BME280;39954;48.844;9.726;2023-05-02T02:27:22;96199.56;;;6.54;100.00
54038;BME280;39954;48.844;9.726;2023-05-02T02:28:27;96195.38;;;6.52;100.00
54038;BME280;39954;48.844;9.726;2023-05-02T02:29:33;96198.06;;;6.48;100.00
54038;BME280;39954;48.844;9.726;2023-05-02T02:30:38;96202.44;;;6.46;100.00
54038;BME280;39954;48.844;9.726;2023-05-02T02:31:44;96196.53;;;6.44;100.00
54038;BME280;39954;48.844;9.726;2023-05-02T02:32:49;96195.72;;;6.42;100.00
54038;BME280;39954;48.844;9.726;2023-05-02T02:33:53;96201.84;;;6.40;100.00
54038;BME280;39954;48.844;9.726;2023-05-02T02:34:58;96208.88;;;6.36;100.00
54038;BME280;39954;48.844;9.726;2023-05-02T02:36:06;96198.69;;;6.33;100.00
54038;BME280;39954;48.844;9.726;2023-05-02T02:37:16;96206.59;;;6.28;100.00
54038;BME280;39954;48.844;9.726;2023-05-02T02:38:26;96205.06;;;6.23;100.00
54038;BME280;39954;48.844;9.726;2023-05-02T02:39:45;96207.66;;;6.23;100.00
54038;BME280;39954;48.844;9.726;2023-05-02T02:40:56;96210.25;;;6.23;100.00
54038;BME280;39954;48.844;9.726;2023-05-02T02:42:11;96211.91;;;6.24;100.00
54038;BME280;39954;48.844;9.726;2023-05-02T02:43:19;96213.59;;;6.25;100.00
54038;BME280;39954;48.844;9.726;2023-05-02T02:44:33;96210.25;;;6.23;100.00
54038;BME280;39954;48.844;9.726;2023-05-02T02:45:47;96216.84;;;6.30;100.00
54038;BME280;39954;48.844;9.726;2023-05-02T02:47:09;96206.75;;;6.24;100.00
54038;BME280;39954;48.844;9.726;2023-05-02T02:48:18;96208.56;;;6.22;100.00
54038;BME280;39954;48.844;9.726;2023-05-02T02:49:34;96212.03;;;6.21;100.00
54038;BME280;39954;48.844;9.726;2023-05-02T02:50:45;96210.34;;;6.20;100.00
54038;BME280;39954;48.844;9.726;2023-05-02T02:52:01;96215.63;;;6.17;100.00
54038;BME280;39954;48.844;9.726;2023-05-02T02:53:08;96212.97;;;6.18;100.00
54038;BME280;39954;48.844;9.726;2023-05-02T02:54:19;96216.50;;;6.16;100.00
54038;BME280;39954;48.844;9.726;2023-05-02T02:55:37;96217.66;;;6.09;100.00
54038;BME280;39954;48.844;9.726;2023-05-02T02:56:45;96218.66;;;6.04;100.00
54038;BME280;39954;48.844;9.726;2023-05-02T02:57:56;96227.41;;;6.00;100.00
54038;BME280;39954;48.844;9.726;2023-05-02T02:59:06;96222.41;;;5.96;100.00
54038;BME280;39954;48.844;9.726;2023-05-02T03:00:15;96224.25;;;5.92;100.00
54038;BME280;39954;48.844;9.726;2023-05-02T03:01:23;96226.81;;;5.94;100.00
54038;BME280;39954;48.844;9.726;2023-05-02T03:02:31;96235.25;;;5.97;100.00
54038;BME280;39954;48.844;9.726;2023-05-02T03:03:38;96241.22;;;5.99;100.00
54038;BME280;39954;48.844;9.726;2023-05-02T03:04:42;96238.84;;;5.93;100.00
54038;BME280;39954;48.844;9.726;2023-05-02T03:05:49;96240.44;;;5.97;100.00
54038;BME280;39954;48.844;9.726;2023-05-02T03:06:52;96238.84;;;5.93;100.00
54038;BME280;39954;48.844;9.726;2023-05-02T03:07:58;96236.34;;;5.90;100.00
54038;BME280;39954;48.844;9.726;2023-05-02T03:09:03;96234.72;;;5.88;100.00
54038;BME280;39954;48.844;9.726;2023-05-02T03:10:06;96239.03;;;5.87;100.00
54038;BME280;39954;48.844;9.726;2023-05-02T03:11:12;96235.66;;;5.85;100.00
54038;BME280;39954;48.844;9.726;2023-05-02T03:12:16;96230.50;;;5.85;100.00
54038;BME280;39954;48.844;9.726;2023-05-02T03:13:23;96233.97;;;5.84;100.00
54038;BME280;39954;48.844;9.726;2023-05-02T03:14:26;96237.34;;;5.86;100.00
54038;BME280;39954;48.844;9.726;2023-05-02T03:15:51;96233.16;;;5.83;100.00
54038;BME280;39954;48.844;9.726;2023-05-02T03:17:00;96239.25;;;5.81;100.00
54038;BME280;39954;48.844;9.726;2023-05-02T03:18:07;96241.78;;;5.82;100.00
54038;BME280;39954;48.844;9.726;2023-05-02T03:19:12;96241.88;;;5.79;100.00
54038;BME280;39954;48.844;9.726;2023-05-02T03:20:20;96248.78;;;5.79;100.00
54038;BME280;39954;48.844;9.726;2023-05-02T03:21:22;96239.28;;;5.79;100.00
54038;BME280;39954;48.844;9.726;2023-05-02T03:22:27;96248.56;;;5.85;100.00
54038;BME280;39954;48.844;9.726;2023-05-02T03:23:29;96247.78;;;5.83;100.00
54038;BME280;39954;48.844;9.726;2023-05-02T03:24:34;96252.25;;;5.78;100.00
54038;BME280;39954;48.844;9.726;2023-05-02T03:25:36;96256.72;;;5.73;100.00
54038;BME280;39954;48.844;9.726;2023-05-02T03:26:41;96256.84;;;5.70;100.00
54038;BME280;39954;48.844;9.726;2023-05-02T03:27:44;96257.75;;;5.69;100.00
54038;BME280;39954;48.844;9.726;2023-05-02T03:28:49;96260.31;;;5.69;100.00
54038;BME280;39954;48.844;9.726;2023-05-02T03:29:52;96256.72;;;5.73;100.00
54038;BME280;39954;48.844;9.726;2023-05-02T03:30:57;96260.88;;;5.77;100.00
54038;BME280;39954;48.844;9.726;2023-05-02T03:32:00;96259.88;;;5.81;100.00
54038;BME280;39954;48.844;9.726;2023-05-02T03:33:08;96248.66;;;5.82;100.00
54038;BME280;39954;48.844;9.726;2023-05-02T03:34:11;96261.63;;;5.80;100.00
54038;BME280;39954;48.844;9.726;2023-05-02T03:35:16;96252.03;;;5.84;100.00
54038;BME280;39954;48.844;9.726;2023-05-02T03:36:19;96260.56;;;5.86;100.00
54038;BME280;39954;48.844;9.726;2023-05-02T03:37:23;96255.19;;;5.94;100.00
54038;BME280;39954;48.844;9.726;2023-05-02T03:38:28;96252.59;;;5.92;100.00
54038;BME280;39954;48.844;9.726;2023-05-02T03:39:33;96259.47;;;5.93;100.00
54038;BME280;39954;48.844;9.726;2023-05-02T03:40:35;96255.19;;;5.92;100.00
54038;BME280;39954;48.844;9.726;2023-05-02T03:41:40;96259.47;;;5.93;100.00
54038;BME280;39954;48.844;9.726;2023-05-02T03:42:43;96263.63;;;5.97;100.00
54038;BME280;39954;48.844;9.726;2023-05-02T03:43:48;96259.94;;;6.04;100.00
54038;BME280;39954;48.844;9.726;2023-05-02T03:44:51;96260.84;;;6.03;100.00
54038;BME280;39954;48.844;9.726;2023-05-02T03:46:04;96265.78;;;6.10;100.00
54038;BME280;39954;48.844;9.726;2023-05-02T03:47:08;96263.25;;;6.08;100.00
54038;BME280;39954;48.844;9.726;2023-05-02T03:48:17;96263.97;;;6.12;100.00
54038;BME280;39954;48.844;9.726;2023-05-02T03:49:19;96273.41;;;6.13;100.00
54038;BME280;39954;48.844;9.726;2023-05-02T03:50:24;96269.16;;;6.12;100.00
54038;BME280;39954;48.844;9.726;2023-05-02T03:51:28;96268.13;;;6.16;100.00
54038;BME280;39954;48.844;9.726;2023-05-02T03:52:34;96269.97;;;6.12;100.00
54038;BME280;39954;48.844;9.726;2023-05-02T03:53:36;96269.88;;;6.15;100.00
54038;BME280;39954;48.844;9.726;2023-05-02T03:54:41;96265.66;;;6.13;100.00
54038;BME280;39954;48.844;9.726;2023-05-02T03:55:44;96275.13;;;6.12;100.00
54038;BME280;39954;48.844;9.726;2023-05-02T03:56:49;96274.91;;;6.18;100.00
54038;BME280;39954;48.844;9.726;2023-05-02T03:57:54;96279.25;;;6.18;100.00
54038;BME280;39954;48.844;9.726;2023-05-02T03:58:56;96276.72;;;6.16;100.00
54038;BME280;39954;48.844;9.726;2023-05-02T04:00:02;96281.78;;;6.19;100.00
54038;BME280;39954;48.844;9.726;2023-05-02T04:01:12;96281.81;;;6.18;100.00
54038;BME280;39954;48.844;9.726;2023-05-02T04:02:18;96286.16;;;6.17;100.00
54038;BME280;39954;48.844;9.726;2023-05-02T04:03:23;96281.03;;;6.16;100.00
54038;BME280;39954;48.844;9.726;2023-05-02T04:04:31;96289.56;;;6.18;100.00
54038;BME280;39954;48.844;9.726;2023-05-02T04:05:33;96294.78;;;6.16;100.00
54038;BME280;39954;48.844;9.726;2023-05-02T04:06:39;96296.50;;;6.16;100.00
54038;BME280;39954;48.844;9.726;2023-05-02T04:07:44;96296.63;;;6.13;100.00
54038;BME280;39954;48.844;9.726;2023-05-02T04:08:47;96295.66;;;6.15;100.00
54038;BME280;39954;48.844;9.726;2023-05-02T04:09:52;96293.09;;;6.15;100.00
54038;BME280;39954;48.844;9.726;2023-05-02T04:10:54;96300.00;;;6.15;100.00
54038;BME280;39954;48.844;9.726;2023-05-02T04:11:59;96291.16;;;6.22;100.00
54038;BME280;39954;48.844;9.726;2023-05-02T04:13:03;96289.19;;;6.28;100.00
54038;BME280;39954;48.844;9.726;2023-05-02T04:14:08;96293.53;;;6.26;100.00
54038;BME280;39954;48.844;9.726;2023-05-02T04:15:11;96297.75;;;6.29;100.00
54038;BME280;39954;48.844;9.726;2023-05-02T04:16:18;96296.84;;;6.30;100.00
54038;BME280;39954;48.844;9.726;2023-05-02T04:17:20;96292.59;;;6.29;100.00
54038;BME280;39954;48.844;9.726;2023-05-02T04:18:28;96292.47;;;6.32;100.00
54038;BME280;39954;48.844;9.726;2023-05-02T04:19:32;96296.75;;;6.33;100.00
54038;BME280;39954;48.844;9.726;2023-05-02T04:20:37;96301.16;;;6.30;100.00
54038;BME280;39954;48.844;9.726;2023-05-02T04:21:40;96301.25;;;6.28;100.00
54038;BME280;39954;48.844;9.726;2023-05-02T04:22:45;96304.69;;;6.27;100.00
54038;BME280;39954;48.844;9.726;2023-05-02T04:23:48;96304.81;;;6.24;100.00
54038;BME280;39954;48.844;9.726;2023-05-02T04:24:53;96311.72;;;6.23;100.00
54038;BME280;39954;48.844;9.726;2023-05-02T04:25:56;96311.78;;;6.22;100.00
54038;BME280;39954;48.844;9.726;2023-05-02T04:27:00;96316.09;;;6.21;100.00
54038;BME280;39954;48.844;9.726;2023-05-02T04:28:06;96311.78;;;6.22;100.00
54038;BME280;39954;48.844;9.726;2023-05-02T04:29:11;96312.66;;;6.21;100.00
54038;BME280;39954;48.844;9.726;2023-05-02T04:30:14;96318.66;;;6.21;100.00
54038;BME280;39954;48.844;9.726;2023-05-02T04:31:19;96326.38;;;6.23;100.00
54038;BME280;39954;48.844;9.726;2023-05-02T04:32:23;96321.25;;;6.21;100.00
54038;BME280;39954;48.844;9.726;2023-05-02T04:33:31;96320.38;;;6.22;100.00
54038;BME280;39954;48.844;9.726;2023-05-02T04:34:33;96322.00;;;6.25;100.00
54038;BME280;39954;48.844;9.726;2023-05-02T04:35:38;96327.28;;;6.22;100.00
54038;BME280;39954;48.844;9.726;2023-05-02T04:36:43;96331.53;;;6.23;100.00
54038;BME280;39954;48.844;9.726;2023-05-02T04:37:48;96337.50;;;6.25;100.00
54038;BME280;39954;48.844;9.726;2023-05-02T04:38:50;96335.63;;;6.28;100.00
54038;BME280;39954;48.844;9.726;2023-05-02T04:39:55;96334.84;;;6.26;100.00
54038;BME280;39954;48.844;9.726;2023-05-02T04:41:00;96330.31;;;6.33;100.00
54038;BME280;39954;48.844;9.726;2023-05-02T04:42:10;96336.53;;;6.27;100.00
54038;BME280;39954;48.844;9.726;2023-05-02T04:43:14;96332.00;;;6.34;100.00
54038;BME280;39954;48.844;9.726;2023-05-02T04:44:17;96341.63;;;6.29;100.00
54038;BME280;39954;48.844;9.726;2023-05-02T04:45:22;96332.78;;;6.36;100.00
54038;BME280;39954;48.844;9.726;2023-05-02T04:46:24;96337.03;;;6.37;100.00
54038;BME280;39954;48.844;9.726;2023-05-02T04:47:29;96335.38;;;6.36;100.00
54038;BME280;39954;48.844;9.726;2023-05-02T04:48:34;96339.06;;;6.29;100.00
54038;BME280;39954;48.844;9.726;2023-05-02T04:49:42;96333.53;;;6.38;100.00
54038;BME280;39954;48.844;9.726;2023-05-02T04:50:45;96348.31;;;6.35;100.00
54038;BME280;39954;48.844;9.726;2023-05-02T04:51:50;96334.00;;;6.26;100.00
54038;BME280;39954;48.844;9.726;2023-05-02T04:52:53;96334.00;;;6.26;100.00
54038;BME280;39954;48.844;9.726;2023-05-02T04:53:58;96345.28;;;6.23;100.00
54038;BME280;39954;48.844;9.726;2023-05-02T04:55:00;96340.94;;;6.24;100.00
54038;BME280;39954;48.844;9.726;2023-05-02T04:56:05;96339.88;;;6.30;100.00
54038;BME280;39954;48.844;9.726;2023-05-02T04:57:08;96348.56;;;6.27;100.00
54038;BME280;39954;48.844;9.726;2023-05-02T04:58:13;96349.38;;;6.29;100.00
54038;BME280;39954;48.844;9.726;2023-05-02T04:59:15;96342.56;;;6.26;100.00
54038;BME280;39954;48.844;9.726;2023-05-02T05:00:20;96347.94;;;6.22;100.00
54038;BME280;39954;48.844;9.726;2023-05-02T05:01:23;96347.34;;;6.14;100.00
54038;BME280;39954;48.844;9.726;2023-05-02T05:02:28;96348.13;;;6.16;100.00
54038;BME280;39954;48.844;9.726;2023-05-02T05:03:31;96343.81;;;6.16;100.00
54038;BME280;39954;48.844;9.726;2023-05-02T05:04:39;96344.88;;;6.11;100.00
54038;BME280;39954;48.844;9.726;2023-05-02T05:05:41;96352.44;;;6.15;100.00
54038;BME280;39954;48.844;9.726;2023-05-02T05:06:48;96354.22;;;6.13;100.00
54038;BME280;39954;48.844;9.726;2023-05-02T05:07:51;96356.88;;;6.12;100.00
54038;BME280;39954;48.844;9.726;2023-05-02T05:08:55;96353.47;;;6.11;100.00
54038;BME280;39954;48.844;9.726;2023-05-02T05:09:58;96350.03;;;6.11;100.00
54038;BME280;39954;48.844;9.726;2023-05-02T05:11:03;96355.28;;;6.08;100.00
54038;BME280;39954;48.844;9.726;2023-05-02T05:12:06;96352.69;;;6.08;100.00
54038;BME280;39954;48.844;9.726;2023-05-02T05:13:11;96357.81;;;6.09;100.00
54038;BME280;39954;48.844;9.726;2023-05-02T05:14:14;96359.50;;;6.10;100.00
54038;BME280;39954;48.844;9.726;2023-05-02T05:15:19;96356.97;;;6.09;100.00
54038;BME280;39954;48.844;9.726;2023-05-02T05:16:24;96359.59;;;6.07;100.00
54038;BME280;39954;48.844;9.726;2023-05-02T05:17:30;96360.38;;;6.11;100.00
54038;BME280;39954;48.844;9.726;2023-05-02T05:18:32;96361.13;;;6.13;100.00
54038;BME280;39954;48.844;9.726;2023-05-02T05:19:44;96360.25;;;6.14;100.00
54038;BME280;39954;48.844;9.726;2023-05-02T05:20:49;96358.50;;;6.14;100.00
54038;BME280;39954;48.844;9.726;2023-05-02T05:21:51;96361.81;;;6.18;100.00
54038;BME280;39954;48.844;9.726;2023-05-02T05:22:56;96364.41;;;6.18;100.00
54038;BME280;39954;48.844;9.726;2023-05-02T05:23:59;96357.59;;;6.15;100.00
54038;BME280;39954;48.844;9.726;2023-05-02T05:25:04;96365.19;;;6.20;100.00
54038;BME280;39954;48.844;9.726;2023-05-02T05:26:10;96368.56;;;6.22;100.00
54038;BME280;39954;48.844;9.726;2023-05-02T05:27:16;96363.41;;;6.22;100.00
54038;BME280;39954;48.844;9.726;2023-05-02T05:28:18;96374.47;;;6.25;100.00
54038;BME280;39954;48.844;9.726;2023-05-02T05:29:23;96372.59;;;6.29;100.00
54038;BME280;39954;48.844;9.726;2023-05-02T05:30:25;96367.41;;;6.31;100.00
54038;BME280;39954;48.844;9.726;2023-05-02T05:31:31;96368.06;;;6.36;100.00
54038;BME280;39954;48.844;9.726;2023-05-02T05:32:34;96362.97;;;6.34;100.00
54038;BME280;39954;48.844;9.726;2023-05-02T05:33:39;96366.34;;;6.36;100.00
54038;BME280;39954;48.844;9.726;2023-05-02T05:34:44;96369.53;;;6.43;100.00
54038;BME280;39954;48.844;9.726;2023-05-02T05:35:48;96371.28;;;6.42;100.00
54038;BME280;39954;48.844;9.726;2023-05-02T05:36:51;96372.00;;;6.46;100.00
54038;BME280;39954;48.844;9.726;2023-05-02T05:37:56;96373.59;;;6.50;100.00
54038;BME280;39954;48.844;9.726;2023-05-02T05:38:58;96377.69;;;6.56;100.00
54038;BME280;39954;48.844;9.726;2023-05-02T05:40:05;96379.84;;;6.66;100.00
54038;BME280;39954;48.844;9.726;2023-05-02T05:41:08;96372.78;;;6.71;100.00
54038;BME280;39954;48.844;9.726;2023-05-02T05:42:13;96386.44;;;6.75;100.00
54038;BME280;39954;48.844;9.726;2023-05-02T05:43:15;96385.53;;;6.76;100.00
54038;BME280;39954;48.844;9.726;2023-05-02T05:44:20;96381.16;;;6.78;100.00
54038;BME280;39954;48.844;9.726;2023-05-02T05:45:26;96388.56;;;6.87;100.00
54038;BME280;39954;48.844;9.726;2023-05-02T05:46:28;96387.38;;;6.96;100.00
54038;BME280;39954;48.844;9.726;2023-05-02T05:47:33;96393.78;;;6.86;100.00
54038;BME280;39954;48.844;9.726;2023-05-02T05:48:39;96390.38;;;6.85;100.00
54038;BME280;39954;48.844;9.726;2023-05-02T05:49:44;96387.78;;;6.85;100.00